map of CEI home
CEI - Airport
Location
City:  Chiang Rai, Chiang Rai, Thailand
Name:Chiang Rai International Airport
ICAO:VTCT
IATA:CEI

Details
Type:Airport (Aerodrome, Airfield)
Use:Public/Civil, International (customs port of entry)
Latitude:19°57'08"N (19.952342)
Longitude:99°52'59"E (99.882928)
Datum:WGS 1984
Elevation:1280 ft (390 m)
Variation:0.96°W (WMM2015v2 magnetic declination)
-0.04° annual change
Runways:1
Longest:9843 × 148 ft (3000 × 45 m), paved

Time
Time Zone:UTC+7
Local Time:

Weather
METAR:VTCT 041400Z 00000KT CAVOK 21/17 Q1015 NOSIG
TAF:VTCT 041100Z 0412/0518 30005KT 9999 FEW025

Related Locations
Nearby:
Farthest:SCFX: 11993 mi / 19302 km
Isla San Félix, Desventuradas Islands, VS, CL

Find:

   beyond  
but within

Other Information
Maps:
NOTAMs:
Links:
Sources:

  
  • flag of Thailand
  

Sectional Chart

Flight Planning
at skyvector.com

Satellite Image

Google Maps Satellite view

 

Copyright © 2004-2019 Karl L. Swartz. All rights reserved.
The Great Circle Mapper name and logo are trademarks of the Great Circle Mapper.
All other trademarks mentioned herein belong to their respective owners.
Please see credits for attibutions and further copyright information.

  Follow gcmap on Facebook Follow gcmap on Twitter GCmap on LinkedIn

hCard Microformat

Geo Microformat